Minatitlan Airport
MMMT : now visible

Airfield :











YOU CAN JOIN US ON...

 
LOGIN :

Register | Disclaimer

   EN    FR    IT 

 









Legend :    VFR   Marginal VFR   IFR   Intensive IFR   Very Intensive IFR
Visi :
Ceiling :
>= 8 km
>= 3000ft
5 to 8 km
1000 to 3000 ft
1500m to 5 km
500 to 1000 ft
800 to 1500m
200 to 500 ft
< 800m
< 200 ft
Symbols :   Thunderstorms  Fog  Heavy snow  Heavy precipitations  Wind > 20 kt







- Airport Elevation : 36 ft
- IATA code : MTT


MMMT - Minatitlan

CURRENT METAR :
  • 202343Z 36010KT 7SM SKC 31/25 A2963 RMK SLP108 52007 907 VCHZ

EXPIRED METARs :
  • 202242Z 36015KT 7SM SKC 32/25 A2963 RMK VCHZ
  • 202144Z 36015KT 7SM SKC 32/24 A2964 RMK VCHZ

TAF COR TAF MMMT
Valid from the 20 at 18:00 until the 21 at 18:00 UTC


201903Z 2018/2118 03010KT P6SM SCT020CB
BECMG 2101/2102 00000KT
FM211400 34010KT 5SM HZ SCT015 SCT070
MMFR FIR / North America



MET'MAP, your aeronautical weather chart ! - Copyright ORBIFLY December 2007 - Disclaimer

ORBIFLY MET'MAP TEAM :

Programming & Development : Alexandra Zaïnal
Concept & Development : Baudouin d'Aumeries
Co-Development & Prog : Marc-Olivier Méhu
Technical & hardware support : Manuel Goepfert

Contact : metmap@orbifly.com




SOURCES & CREDITS :

   NOAA       Earth
Advisory